createdAt,value
2023-05-02T15:01:08.108Z,2.40
2023-05-02T15:04:36.616Z,2.00
2023-05-02T15:08:08.803Z,2.10
2023-05-02T15:11:16.719Z,1.80
2023-05-02T15:14:20.198Z,1.30
2023-05-02T15:17:40.952Z,1.30
2023-05-02T15:21:39.253Z,1.00
2023-05-02T15:24:13.425Z,0.90
2023-05-02T15:27:15.508Z,0.70
2023-05-02T15:29:53.087Z,0.70
2023-05-02T15:33:22.316Z,0.80
2023-05-02T15:36:45.144Z,0.90
2023-05-02T15:40:17.421Z,1.60
2023-05-02T15:43:23.084Z,1.10
2023-05-02T15:46:17.606Z,1.30
2023-05-02T15:49:08.247Z,1.10
2023-05-02T15:52:08.736Z,1.10
2023-05-02T15:55:25.954Z,1.00
2023-05-02T15:58:50.010Z,1.00
2023-05-02T16:02:26.805Z,1.40
2023-05-02T16:06:06.975Z,1.20
2023-05-02T16:09:38.908Z,1.40
2023-05-02T16:12:30.514Z,1.50
2023-05-02T16:15:37.360Z,1.50
2023-05-02T16:19:30.833Z,1.20
2023-05-02T16:23:23.990Z,1.60
2023-05-02T16:26:57.660Z,1.40
2023-05-02T16:30:49.987Z,1.30
2023-05-02T16:34:38.013Z,1.70
2023-05-02T16:38:47.204Z,1.50
2023-05-02T16:42:25.464Z,1.60
2023-05-02T16:46:27.789Z,1.50
2023-05-02T16:49:24.751Z,1.20
2023-05-02T16:53:07.131Z,1.40
2023-05-02T16:56:20.825Z,1.20
2023-05-02T16:59:40.180Z,1.30
2023-05-02T17:03:16.235Z,1.00
2023-05-02T17:06:23.171Z,0.90
2023-05-02T17:09:38.432Z,0.80
2023-05-02T17:12:37.490Z,0.80
2023-05-02T17:16:10.484Z,0.90
2023-05-02T17:19:41.989Z,0.70
2023-05-02T17:22:56.548Z,1.20
2023-05-02T17:25:51.612Z,0.90
2023-05-02T17:28:58.245Z,1.10
2023-05-02T17:32:06.191Z,0.90
2023-05-02T17:35:50.140Z,1.10
2023-05-02T17:38:39.375Z,0.90
2023-05-02T17:41:56.421Z,1.10
2023-05-02T17:45:36.414Z,1.80
2023-05-02T17:48:40.595Z,2.60
2023-05-02T17:52:19.148Z,2.40
2023-05-02T17:55:27.243Z,2.10
2023-05-02T17:58:21.779Z,2.20
2023-05-02T18:01:02.818Z,1.70
2023-05-02T18:03:40.299Z,4.20
2023-05-02T18:07:23.996Z,2.70
2023-05-02T18:10:28.697Z,1.80
2023-05-02T18:13:39.767Z,1.90
2023-05-02T18:16:34.200Z,2.10
2023-05-02T18:19:23.744Z,1.90
2023-05-02T18:22:11.987Z,2.00
2023-05-02T18:25:20.946Z,1.90
2023-05-02T18:28:24.355Z,2.20
2023-05-02T18:31:43.216Z,3.00
2023-05-02T18:35:15.693Z,4.30
2023-05-02T18:38:14.113Z,3.10
2023-05-02T18:41:05.521Z,2.20
2023-05-02T18:44:44.726Z,3.40
2023-05-02T18:47:38.242Z,2.40
2023-05-02T18:50:26.247Z,2.20
2023-05-02T18:53:12.320Z,3.10
2023-05-02T18:55:58.556Z,3.30
2023-05-02T18:59:15.533Z,4.80
2023-05-02T19:02:24.954Z,30.20
2023-05-02T19:05:15.820Z,79.20
2023-05-02T19:08:44.083Z,83.40
2023-05-02T19:11:45.041Z,77.10
2023-05-02T19:14:54.975Z,43.90
2023-05-02T19:17:27.884Z,29.40
2023-05-02T19:24:02.002Z,33.20
2023-05-02T19:27:24.034Z,23.60
2023-05-02T19:30:41.022Z,14.90
2023-05-02T19:34:04.283Z,12.00
2023-05-02T19:37:46.708Z,4.90
2023-05-02T19:40:57.505Z,4.40
2023-05-02T19:44:02.571Z,3.20
2023-05-02T19:47:44.036Z,4.20
2023-05-02T19:50:35.739Z,3.80
2023-05-02T19:53:41.626Z,3.40
2023-05-02T19:56:55.580Z,5.20
2023-05-02T20:00:34.436Z,7.10
2023-05-02T20:04:00.357Z,7.70
2023-05-02T20:06:45.085Z,4.80
2023-05-02T20:10:34.446Z,13.00
2023-05-02T20:13:54.612Z,19.80
2023-05-02T20:17:14.125Z,23.40
2023-05-02T20:20:11.620Z,25.60
2023-05-02T20:23:17.018Z,23.20
2023-05-02T20:29:36.037Z,27.50
2023-05-02T20:33:14.759Z,24.10
2023-05-02T20:36:45.490Z,22.80
2023-05-02T20:40:39.502Z,14.20
2023-05-02T20:43:32.796Z,11.60
2023-05-02T20:47:42.496Z,13.20
2023-05-02T20:50:43.440Z,10.60
2023-05-02T20:53:57.257Z,9.60
2023-05-02T20:57:06.208Z,10.50
2023-05-02T21:00:56.042Z,10.90
2023-05-02T21:04:28.348Z,10.60
2023-05-02T21:07:35.917Z,10.10
2023-05-02T21:11:13.450Z,9.40
2023-05-02T21:14:35.970Z,9.10
2023-05-02T21:21:14.092Z,7.40
2023-05-02T21:27:09.246Z,6.40
2023-05-02T21:30:28.802Z,5.50
2023-05-02T21:33:52.630Z,4.00
2023-05-02T21:37:01.269Z,4.60
2023-05-02T21:40:46.994Z,4.90
2023-05-02T21:43:52.702Z,6.30
2023-05-02T21:47:21.566Z,5.70
2023-05-02T21:51:14.176Z,4.20
2023-05-02T21:54:54.445Z,3.30
2023-05-02T21:58:43.636Z,5.00
2023-05-02T22:02:09.354Z,3.40
2023-05-02T22:05:13.993Z,4.10
2023-05-02T22:08:46.118Z,3.50
2023-05-02T22:12:26.891Z,3.40
2023-05-02T22:15:51.234Z,3.90
2023-05-02T22:19:28.051Z,5.40
2023-05-02T22:22:34.170Z,7.10
2023-05-02T22:25:50.503Z,7.90
2023-05-02T22:28:36.081Z,8.00
2023-05-02T22:31:50.161Z,10.20
2023-05-02T22:35:39.818Z,11.40
2023-05-02T22:38:37.086Z,12.10
2023-05-02T22:42:01.742Z,12.10
2023-05-02T22:45:06.719Z,13.30
2023-05-02T22:48:59.140Z,11.90
2023-05-02T22:52:38.627Z,13.10
2023-05-02T22:55:35.217Z,12.90
2023-05-02T22:58:23.751Z,13.00
2023-05-02T23:01:31.914Z,12.10
2023-05-02T23:04:59.872Z,12.20
2023-05-02T23:08:10.669Z,11.00
2023-05-02T23:11:18.265Z,10.00
2023-05-02T23:14:30.362Z,10.70
2023-05-02T23:17:29.945Z,9.00
2023-05-02T23:20:30.456Z,9.60
2023-05-02T23:23:42.311Z,10.80
2023-05-02T23:26:28.919Z,11.70
2023-05-02T23:29:44.385Z,13.90
2023-05-02T23:33:04.202Z,14.50
2023-05-02T23:36:09.482Z,14.10
2023-05-02T23:39:35.787Z,14.20
2023-05-02T23:42:40.141Z,12.30
2023-05-02T23:46:15.793Z,12.00
2023-05-02T23:49:54.515Z,11.20
2023-05-02T23:53:09.178Z,11.80
2023-05-02T23:56:03.506Z,11.40
2023-05-02T23:59:46.035Z,12.30
